Time;durP1;ratioP1;P1;durP2;ratioP2;P2;SDS_P1;SDS_P2;PMS_P1;PMS_P2;Temp;Humidity;BMP_temperature;BMP_pressure;BME280_temperature;BME280_humidity;BME280_pressure;Samples;Min_cycle;Max_cycle;Signal;HPM_P1;HPM_P2
2023/10/03 03:59:35;;;;;;;14.02;7.37;;;;;;;14.67;87.27;101221.47;5606442;31;78696;-57
2023/10/03 04:02:38;;;;;;;15.20;7.25;;;;;;;14.67;87.27;101221.47;5583776;32;33429;-57
2023/10/03 04:05:42;;;;;;;12.68;6.97;;;;;;;14.27;100.00;101227.00;5583851;31;33247;-57
2023/10/03 04:08:45;;;;;;;12.90;6.95;;;;;;;13.99;94.48;101223.19;5584870;31;33541;-57
2023/10/03 04:12:07;;;;;;;16.83;6.75;;;;;;;13.91;92.32;101218.41;5583723;31;33617;-57
2023/10/03 04:15:18;;;;;;;11.93;6.32;;;;;;;14.06;88.60;101220.16;5591852;31;33827;-57
2023/10/03 04:18:21;;;;;;;14.30;6.55;;;;;;;14.11;96.54;101217.44;5603111;31;34314;-58
2023/10/03 04:21:27;;;;;;;15.85;7.55;;;;;;;14.05;89.21;101213.16;5603401;31;33565;-58
2023/10/03 04:24:29;;;;;;;11.02;6.53;;;;;;;14.08;100.00;101210.72;5603296;31;33522;-57
2023/10/03 04:27:32;;;;;;;12.00;6.75;;;;;;;13.97;89.15;101219.16;5603117;31;33688;-56
2023/10/03 04:30:35;;;;;;;12.07;6.32;;;;;;;14.10;87.42;101221.19;5603100;31;34265;-56
2023/10/03 04:33:37;;;;;;;12.43;6.57;;;;;;;14.10;86.56;101221.19;5603340;31;33659;-55
2023/10/03 04:36:41;;;;;;;12.30;6.60;;;;;;;14.03;93.18;101221.53;5601986;31;33638;-55
2023/10/03 04:39:45;;;;;;;15.80;7.12;;;;;;;14.12;98.85;101227.13;5563735;32;33607;-55
2023/10/03 04:43:06;;;;;;;14.13;6.75;;;;;;;14.01;88.77;101222.91;5563961;32;33647;-55
2023/10/03 04:46:08;;;;;;;11.90;6.22;;;;;;;14.06;95.42;101220.16;5573359;31;34401;-55
2023/10/03 04:49:11;;;;;;;13.88;6.85;;;;;;;14.13;87.42;101219.84;5584337;31;33658;-55
2023/10/03 04:52:13;;;;;;;12.13;6.43;;;;;;;14.14;97.63;101224.13;5583261;31;33710;-55
2023/10/03 04:55:16;;;;;;;18.45;7.65;;;;;;;14.10;100.00;101223.87;5583353;31;34211;-55
2023/10/03 04:58:18;;;;;;;11.05;6.45;;;;;;;13.93;96.51;101218.09;5583074;31;33550;-55
2023/10/03 05:01:21;;;;;;;15.20;7.05;;;;;;;14.08;94.82;101223.37;5581396;32;33588;-55
2023/10/03 05:04:25;;;;;;;12.70;7.25;;;;;;;14.13;89.69;101217.94;5564991;32;33152;-55
2023/10/03 05:07:28;;;;;;;11.27;6.95;;;;;;;14.23;87.07;101225.12;5568745;31;33839;-55
2023/10/03 05:10:31;;;;;;;13.50;7.12;;;;;;;14.20;100.00;101218.41;5571962;32;34381;-55
2023/10/03 05:13:33;;;;;;;14.90;7.37;;;;;;;14.18;90.12;101220.59;5569912;32;33560;-56
2023/10/03 05:16:36;;;;;;;15.93;7.47;;;;;;;14.24;87.47;101224.88;5569201;32;34237;-56
2023/10/03 05:19:39;;;;;;;18.40;7.87;;;;;;;14.21;100.00;101220.03;5569490;31;34263;-55
2023/10/03 05:22:41;;;;;;;19.90;10.70;;;;;;;14.22;94.13;101218.94;5569488;32;33663;-55
2023/10/03 05:25:44;;;;;;;15.52;7.50;;;;;;;14.21;89.91;101214.66;5568822;31;33653;-56
2023/10/03 05:28:46;;;;;;;12.00;7.30;;;;;;;14.28;89.73;101217.81;5580575;31;33658;-56
2023/10/03 05:31:48;;;;;;;16.23;8.10;;;;;;;14.29;98.64;101229.41;5587917;31;33618;-55
2023/10/03 05:34:52;;;;;;;14.35;7.50;;;;;;;14.32;93.46;101226.13;5571692;31;33645;-56
2023/10/03 05:37:55;;;;;;;16.90;7.72;;;;;;;14.41;99.43;101229.81;5571656;31;33602;-59
2023/10/03 05:40:57;;;;;;;28.20;8.52;;;;;;;14.47;96.22;101220.59;5577314;31;33690;-58
2023/10/03 05:44:00;;;;;;;37.90;8.90;;;;;;;14.60;93.42;101221.03;5577185;31;33607;-58
2023/10/03 05:47:03;;;;;;;20.60;8.77;;;;;;;14.61;100.00;101231.53;5569558;32;33558;-58
2023/10/03 05:50:09;;;;;;;14.60;7.50;;;;;;;14.68;89.76;101228.50;5569823;31;34266;-58
2023/10/03 05:53:12;;;;;;;15.10;8.15;;;;;;;14.82;100.00;101229.41;5574169;31;33843;-58
2023/10/03 05:56:15;;;;;;;17.52;8.82;;;;;;;14.75;92.93;101234.34;5568696;32;33763;-58
2023/10/03 05:59:18;;;;;;;22.02;8.38;;;;;;;14.82;94.21;101234.00;5569748;31;33360;-59
2023/10/03 06:02:21;;;;;;;25.25;9.13;;;;;;;14.90;92.68;101239.59;5578553;31;34248;-59
2023/10/03 06:05:24;;;;;;;20.55;8.63;;;;;;;15.02;100.00;101236.47;5588748;31;33579;-58
2023/10/03 06:08:26;;;;;;;18.37;8.18;;;;;;;15.17;100.00;101238.19;5588913;31;33642;-58
2023/10/03 06:11:30;;;;;;;17.23;7.82;;;;;;;15.19;89.78;101244.09;5583957;31;34042;-58
2023/10/03 06:14:33;;;;;;;19.95;7.72;;;;;;;15.31;92.87;101249.88;5570164;31;33820;-59
2023/10/03 06:17:36;;;;;;;15.50;7.05;;;;;;;15.34;93.41;101248.50;5569215;32;34314;-59
2023/10/03 06:20:38;;;;;;;12.82;7.05;;;;;;;15.54;100.00;101247.41;5568548;32;33672;-58
2023/10/03 06:23:41;;;;;;;22.58;8.48;;;;;;;15.50;85.86;101253.41;5569203;31;33684;-59
2023/10/03 06:26:46;;;;;;;25.50;8.18;;;;;;;15.59;93.50;101247.31;5569386;32;33661;-58
2023/10/03 06:29:49;;;;;;;15.85;6.72;;;;;;;15.84;82.53;101241.56;5565448;32;34285;-58
2023/10/03 06:32:51;;;;;;;21.12;6.37;;;;;;;16.04;79.88;101245.06;5555544;31;34247;-58
2023/10/03 06:35:54;;;;;;;19.45;6.18;;;;;;;16.11;79.65;101245.47;5555987;32;33596;-58
2023/10/03 06:38:57;;;;;;;19.27;6.45;;;;;;;16.21;79.43;101242.59;5568317;32;33724;-58
2023/10/03 06:42:00;;;;;;;19.52;6.40;;;;;;;16.21;74.65;101242.59;5567126;31;33624;-58
2023/10/03 06:45:03;;;;;;;24.00;7.10;;;;;;;16.28;73.63;101239.50;5568647;32;33720;-58
2023/10/03 06:48:06;;;;;;;17.40;6.47;;;;;;;16.37;73.79;101233.13;5571371;31;33820;-59
2023/10/03 06:51:09;;;;;;;16.35;6.28;;;;;;;16.49;83.08;101229.94;5574801;31;33647;-59
2023/10/03 06:54:12;;;;;;;17.83;6.47;;;;;;;16.59;73.29;101237.88;5588405;31;33689;-59
2023/10/03 06:57:14;;;;;;;18.70;6.05;;;;;;;16.65;79.58;101236.66;5581884;31;34612;-59
2023/10/03 07:00:21;;;;;;;12.95;6.85;;;;;;;16.81;81.56;101241.81;5568730;32;34222;-59
2023/10/03 07:03:24;;;;;;;22.27;7.18;;;;;;;16.87;69.75;101237.88;5584929;31;33761;-59
2023/10/03 07:06:28;;;;;;;14.50;6.15;;;;;;;16.87;70.78;101240.59;5568481;31;33585;-59
2023/10/03 07:09:30;;;;;;;13.85;6.78;;;;;;;17.02;81.15;101234.06;5549101;32;34380;-59
2023/10/03 07:12:33;;;;;;;15.65;6.95;;;;;;;16.97;71.03;101236.87;5549336;32;33794;-59
2023/10/03 07:15:35;;;;;;;18.00;7.45;;;;;;;17.04;78.78;101250.81;5574565;31;34559;-59
2023/10/03 07:18:39;;;;;;;15.75;7.57;;;;;;;17.06;72.23;101243.22;5568264;32;33604;-58
2023/10/03 07:21:42;;;;;;;14.10;6.93;;;;;;;17.16;68.58;101240.28;5568020;32;33679;-58
2023/10/03 07:24:45;;;;;;;18.27;7.60;;;;;;;17.13;79.14;101243.59;5560606;31;33461;-59
2023/10/03 07:27:48;;;;;;;20.27;7.72;;;;;;;17.38;85.65;101247.66;5553937;31;33766;-59
2023/10/03 07:30:51;;;;;;;24.60;8.68;;;;;;;17.29;69.64;101242.16;5556314;32;34364;-59
2023/10/03 07:33:54;;;;;;;17.10;7.78;;;;;;;17.42;72.79;101243.25;5563202;31;33744;-59
2023/10/03 07:36:57;;;;;;;17.67;7.90;;;;;;;17.35;68.57;101253.69;5571472;31;33528;-58
2023/10/03 07:40:00;;;;;;;18.80;7.62;;;;;;;17.55;78.80;101255.16;5557190;31;32708;-59
2023/10/03 07:43:06;;;;;;;17.37;8.07;;;;;;;17.56;73.06;101248.62;5561176;31;33618;-58
2023/10/03 07:46:09;;;;;;;17.75;7.60;;;;;;;17.61;71.29;101246.59;5569752;31;33609;-59
2023/10/03 07:49:11;;;;;;;12.68;7.03;;;;;;;17.60;71.22;101244.97;5561081;31;33542;-59
2023/10/03 07:52:17;;;;;;;19.20;7.72;;;;;;;17.69;79.12;101245.06;5564796;31;34288;-59
2023/10/03 07:55:19;;;;;;;14.30;7.82;;;;;;;17.75;72.23;101260.13;5569263;31;34342;-59
2023/10/03 07:58:22;;;;;;;18.50;7.87;;;;;;;17.70;74.02;101249.38;5553196;32;33803;-58
2023/10/03 08:01:25;;;;;;;19.83;7.95;;;;;;;17.79;77.74;101247.56;5567824;31;33637;-59
2023/10/03 08:04:31;;;;;;;15.40;7.97;;;;;;;17.95;73.31;101256.16;5559853;31;34241;-59
2023/10/03 08:07:38;;;;;;;15.30;7.75;;;;;;;17.91;68.74;101244.28;5559831;32;34251;-59
2023/10/03 08:10:40;;;;;;;14.60;7.60;;;;;;;18.04;70.25;101246.13;5565937;31;33546;-59
2023/10/03 08:13:43;;;;;;;14.73;7.72;;;;;;;18.21;82.56;101255.50;5579821;31;34286;-59
2023/10/03 08:16:46;;;;;;;15.93;7.30;;;;;;;18.27;77.63;101251.53;5568894;31;34311;-59
2023/10/03 08:19:49;;;;;;;21.60;7.70;;;;;;;18.22;77.54;101241.62;5550715;31;33596;-59
2023/10/03 08:22:51;;;;;;;16.50;8.10;;;;;;;18.28;79.30;101245.81;5561465;31;33560;-59
2023/10/03 08:26:01;;;;;;;13.15;7.57;;;;;;;18.47;73.36;101252.94;5567032;31;34393;-58
2023/10/03 08:29:06;;;;;;;15.00;8.02;;;;;;;18.47;78.29;101251.00;5560858;31;33612;-59
2023/10/03 08:32:09;;;;;;;12.07;7.30;;;;;;;18.52;74.06;101247.37;5556944;31;33790;-59
2023/10/03 08:35:11;;;;;;;17.42;8.30;;;;;;;18.48;74.62;101233.63;5573547;31;34489;-59
2023/10/03 08:38:14;;;;;;;17.40;7.32;;;;;;;18.64;82.74;101228.59;5572353;31;33659;-59
2023/10/03 08:41:27;;;;;;;17.40;7.60;;;;;;;18.71;79.40;101233.56;5569332;31;33780;-59
2023/10/03 08:44:36;;;;;;;13.57;7.12;;;;;;;18.69;69.90;101228.44;5565580;31;34292;-59
2023/10/03 08:47:47;;;;;;;20.45;7.97;;;;;;;18.76;76.38;101228.00;5566378;31;33574;-59
2023/10/03 08:50:52;;;;;;;18.62;7.95;;;;;;;18.77;69.61;101218.72;5564543;31;33394;-58
2023/10/03 08:54:08;;;;;;;16.20;7.32;;;;;;;18.85;68.37;101219.91;5565522;31;33564;-59
2023/10/03 08:57:11;;;;;;;17.40;7.85;;;;;;;18.90;73.77;101215.09;5565742;31;33596;-59
2023/10/03 09:00:16;;;;;;;13.90;7.00;;;;;;;19.02;74.66;101211.78;5565299;31;33644;-59
2023/10/03 09:03:18;;;;;;;19.45;7.72;;;;;;;19.06;70.87;101201.88;5570334;31;33968;-59
2023/10/03 09:06:23;;;;;;;20.73;8.30;;;;;;;19.09;68.97;101203.16;5563938;32;33587;-57
2023/10/03 09:09:25;;;;;;;16.10;7.75;;;;;;;19.25;73.48;101198.88;5573269;31;34247;-56
2023/10/03 09:12:28;;;;;;;17.25;7.55;;;;;;;19.25;68.70;101196.94;5560259;31;33638;-57
2023/10/03 09:15:42;;;;;;;13.30;7.32;;;;;;;19.25;70.76;101196.16;5564869;32;33657;-57
2023/10/03 09:18:50;;;;;;;16.80;7.53;;;;;;;19.43;71.51;101186.06;5566827;31;34372;-56
2023/10/03 09:21:53;;;;;;;17.05;7.10;;;;;;;19.47;72.69;101184.34;5566772;32;33608;-57
2023/10/03 09:24:56;;;;;;;14.77;6.90;;;;;;;19.51;71.98;101179.84;5569335;31;34393;-57
2023/10/03 09:28:05;;;;;;;11.90;6.35;;;;;;;19.58;69.18;101184.81;5568247;31;33779;-56
2023/10/03 09:31:08;;;;;;;14.70;7.15;;;;;;;19.73;71.79;101172.63;5568375;31;33985;-57
2023/10/03 09:34:13;;;;;;;29.05;7.37;;;;;;;19.91;70.23;101163.34;5567488;32;34343;-56
2023/10/03 09:37:17;;;;;;;20.33;6.60;;;;;;;19.94;69.37;101166.19;5567648;31;34314;-58
2023/10/03 09:40:20;;;;;;;22.60;6.68;;;;;;;20.07;68.37;101158.97;5567885;32;33588;-56
2023/10/03 09:43:27;;;;;;;13.73;6.25;;;;;;;20.12;68.87;101156.06;5568442;31;33574;-56
2023/10/03 09:46:38;;;;;;;20.65;6.87;;;;;;;20.22;68.71;101149.44;5567624;31;34366;-57
2023/10/03 09:49:42;;;;;;;11.05;5.90;;;;;;;20.23;69.96;101150.25;5571470;31;33714;-57
2023/10/03 09:52:44;;;;;;;19.50;6.40;;;;;;;20.44;67.83;101148.41;5572722;31;33770;-56
2023/10/03 09:55:49;;;;;;;10.82;5.87;;;;;;;20.56;67.17;101154.00;5564317;31;33599;-56
2023/10/03 09:58:54;;;;;;;14.55;5.57;;;;;;;20.48;64.54;101157.50;5557705;32;33594;-56
2023/10/03 10:01:59;;;;;;;18.45;5.43;;;;;;;20.57;65.47;101150.12;5567077;31;34283;-58
2023/10/03 10:05:20;;;;;;;14.32;5.80;;;;;;;20.58;64.44;101142.75;5560205;31;34444;-57
2023/10/03 10:08:46;;;;;;;11.98;5.20;;;;;;;20.62;67.54;101143.69;5559382;32;33749;-56
2023/10/03 10:12:15;;;;;;;11.12;5.68;;;;;;;20.76;67.10;101151.59;5569315;31;33351;-57
2023/10/03 10:15:27;;;;;;;13.80;5.30;;;;;;;20.84;64.18;101137.16;5568553;32;34520;-57
2023/10/03 10:18:44;;;;;;;10.50;5.78;;;;;;;20.85;63.33;101134.06;5565061;31;34348;-58
2023/10/03 10:21:59;;;;;;;9.43;4.82;;;;;;;20.98;64.20;101126.78;5557693;31;32034;-59
2023/10/03 10:25:27;;;;;;;10.93;5.03;;;;;;;20.96;63.62;101123.59;5563855;31;33622;-58
2023/10/03 10:28:34;;;;;;;12.10;5.15;;;;;;;21.05;61.28;101121.59;5560965;31;32484;-58
2023/10/03 10:31:42;;;;;;;12.02;5.25;;;;;;;21.15;61.22;101117.66;5558664;31;33590;-59
2023/10/03 10:34:46;;;;;;;11.43;4.90;;;;;;;21.23;63.34;101116.00;5564856;31;34315;-59
2023/10/03 10:37:49;;;;;;;8.98;4.85;;;;;;;21.25;60.72;101111.78;5563711;31;33628;-58
2023/10/03 10:41:17;;;;;;;16.75;4.60;;;;;;;21.44;62.52;101108.59;5568539;31;33771;-58
2023/10/03 10:44:21;;;;;;;14.32;4.78;;;;;;;21.44;62.33;101107.81;5573860;31;33598;-58
2023/10/03 10:47:24;;;;;;;12.20;5.28;;;;;;;21.35;59.03;101094.25;5558648;31;33685;-59
2023/10/03 10:50:27;;;;;;;10.18;4.40;;;;;;;21.37;59.05;101093.94;5567647;32;33807;-58
2023/10/03 10:53:44;;;;;;;8.73;3.75;;;;;;;21.50;60.01;101092.84;5572466;31;33644;-58
2023/10/03 10:56:47;;;;;;;11.10;4.25;;;;;;;21.63;59.02;101099.91;5562644;31;33745;-59
2023/10/03 10:59:51;;;;;;;11.73;4.28;;;;;;;21.62;58.30;101092.06;5564642;31;34342;-58
2023/10/03 11:02:53;;;;;;;9.38;4.10;;;;;;;21.70;60.17;101091.19;5568989;31;33726;-59
2023/10/03 11:05:56;;;;;;;9.35;3.90;;;;;;;21.67;57.72;101075.47;5563282;31;34413;-59
2023/10/03 11:08:58;;;;;;;8.88;3.72;;;;;;;21.65;58.60;101081.25;5558928;32;33189;-58
2023/10/03 11:12:04;;;;;;;9.35;4.60;;;;;;;21.63;57.58;101075.38;5553917;31;33738;-59
2023/10/03 11:15:11;;;;;;;7.95;4.15;;;;;;;21.66;57.54;101077.41;5565082;31;33622;-59
2023/10/03 11:18:14;;;;;;;10.10;4.25;;;;;;;21.84;59.71;101069.81;5567972;31;33710;-59
2023/10/03 11:21:18;;;;;;;10.70;4.32;;;;;;;21.76;57.59;101060.59;5562120;31;33724;-59
2023/10/03 11:24:23;;;;;;;9.27;3.62;;;;;;;21.81;57.29;101059.56;5564026;31;34209;-58
2023/10/03 11:27:29;;;;;;;5.72;3.10;;;;;;;21.88;56.87;101054.34;5563623;31;32212;-59
2023/10/03 11:30:31;;;;;;;8.60;3.55;;;;;;;21.92;57.45;101055.28;5565615;31;33762;-59
2023/10/03 11:33:47;;;;;;;6.30;3.90;;;;;;;21.97;57.36;101055.03;5561788;32;33915;-59
2023/10/03 11:36:51;;;;;;;11.27;3.75;;;;;;;22.07;59.14;101055.72;5554968;32;33374;-59
2023/10/03 11:40:04;;;;;;;9.55;3.65;;;;;;;22.02;58.24;101043.13;5554102;31;34424;-59
2023/10/03 11:43:08;;;;;;;7.87;3.20;;;;;;;22.20;57.04;101044.47;5561421;31;34048;-59
2023/10/03 11:46:11;;;;;;;6.55;3.50;;;;;;;22.05;57.80;101039.69;5564720;31;34393;-59
2023/10/03 11:49:15;;;;;;;7.55;3.25;;;;;;;22.22;57.69;101044.94;5559337;31;32291;-59
2023/10/03 11:52:18;;;;;;;7.78;3.50;;;;;;;22.30;57.60;101031.50;5557722;32;34405;-59
2023/10/03 11:55:20;;;;;;;7.55;3.60;;;;;;;22.27;56.63;101024.78;5557473;31;34405;-59
2023/10/03 11:58:23;;;;;;;8.40;3.67;;;;;;;22.14;56.55;101023.19;5565204;31;34331;-59
2023/10/03 12:01:25;;;;;;;9.35;3.50;;;;;;;22.21;56.70;101017.97;5557943;31;33801;-59
2023/10/03 12:04:29;;;;;;;7.45;3.22;;;;;;;22.30;56.26;101005.00;5560888;31;33593;-59
2023/10/03 12:07:32;;;;;;;7.28;2.75;;;;;;;22.27;56.76;101005.69;5555283;32;33947;-59
2023/10/03 12:10:36;;;;;;;5.30;2.85;;;;;;;22.18;55.66;100997.59;5549837;32;33630;-59
2023/10/03 12:13:39;;;;;;;12.75;3.78;;;;;;;22.21;55.91;100999.66;5567111;32;32362;-59
2023/10/03 12:16:45;;;;;;;7.57;3.37;;;;;;;22.30;56.44;100994.06;5558961;32;33902;-59
2023/10/03 12:19:48;;;;;;;6.95;3.35;;;;;;;22.41;56.09;101006.09;5567217;32;34346;-59
2023/10/03 12:22:52;;;;;;;7.47;3.65;;;;;;;22.32;55.25;100990.97;5561343;32;34331;-59
2023/10/03 12:25:56;;;;;;;8.85;3.53;;;;;;;22.42;58.30;100990.53;5566679;32;33848;-59
2023/10/03 12:29:05;;;;;;;14.35;3.58;;;;;;;22.49;54.76;100985.25;5561273;32;34321;-59
2023/10/03 12:32:08;;;;;;;7.97;3.40;;;;;;;22.40;55.21;100990.06;5567079;32;33460;-59
2023/10/03 12:35:11;;;;;;;14.65;3.22;;;;;;;22.28;55.26;100982.69;5562638;32;33806;-59
2023/10/03 12:38:15;;;;;;;10.65;3.50;;;;;;;22.33;56.17;100981.66;5569254;32;34124;-59
2023/10/03 12:41:21;;;;;;;8.18;3.30;;;;;;;22.35;54.19;100973.91;5561871;31;34262;-60
2023/10/03 12:44:23;;;;;;;5.47;3.17;;;;;;;22.45;54.40;100971.50;5566196;32;33453;-59
2023/10/03 12:47:27;;;;;;;9.90;3.58;;;;;;;22.49;55.19;100963.41;5568347;31;33720;-59
2023/10/03 12:50:31;;;;;;;10.25;3.08;;;;;;;22.56;54.91;100960.09;5569231;32;33681;-59
2023/10/03 12:53:37;;;;;;;8.25;3.40;;;;;;;22.61;53.47;100965.28;5568965;32;34294;-59
2023/10/03 12:56:40;;;;;;;10.35;3.40;;;;;;;22.60;56.16;100955.50;5566418;32;34322;-59
2023/10/03 12:59:44;;;;;;;10.45;3.35;;;;;;;22.55;54.94;100951.09;5560477;32;33704;-59
2023/10/03 13:02:48;;;;;;;12.27;3.60;;;;;;;22.47;54.28;100955.53;5559205;32;34294;-60
2023/10/03 13:05:52;;;;;;;6.15;2.95;;;;;;;22.65;55.56;100944.31;5568887;32;33669;-59
2023/10/03 13:08:55;;;;;;;10.02;3.35;;;;;;;22.65;54.21;100938.84;5564096;32;34373;-60
2023/10/03 13:11:58;;;;;;;7.68;3.20;;;;;;;22.65;54.30;100934.19;5568852;32;33518;-59
2023/10/03 13:15:03;;;;;;;11.63;3.58;;;;;;;22.60;54.20;100928.19;5553168;32;33674;-59
2023/10/03 13:18:05;;;;;;;7.85;3.00;;;;;;;22.60;54.58;100925.44;5563128;32;33601;-59
2023/10/03 13:21:08;;;;;;;8.05;3.10;;;;;;;22.52;54.47;100928.00;5566975;32;33819;-59
2023/10/03 13:24:10;;;;;;;70.22;17.42;;;;;;;22.58;53.95;100925.78;5567519;32;34381;-59
2023/10/03 13:27:14;;;;;;;21.87;6.43;;;;;;;22.55;54.25;100917.50;5559046;31;33695;-59
2023/10/03 13:30:18;;;;;;;57.30;51.05;;;;;;;22.56;54.84;100917.16;5559887;32;33553;-59
2023/10/03 13:33:21;;;;;;;14.87;4.62;;;;;;;22.56;54.63;100916.38;5567725;32;34424;-59
2023/10/03 13:36:24;;;;;;;13.40;3.47;;;;;;;22.63;55.49;100905.63;5568037;32;33193;-59
2023/10/03 13:39:26;;;;;;;11.85;3.75;;;;;;;22.70;54.36;100895.69;5568737;32;33234;-59
2023/10/03 13:42:29;;;;;;;15.50;3.87;;;;;;;22.69;55.15;100896.81;5568333;32;33103;-59
2023/10/03 13:45:32;;;;;;;6.85;3.00;;;;;;;22.62;55.44;100895.84;5562578;32;34384;-60
2023/10/03 13:48:35;;;;;;;9.02;3.22;;;;;;;22.61;55.05;100889.56;5568818;32;33576;-58
2023/10/03 13:51:38;;;;;;;12.23;3.10;;;;;;;22.64;55.93;100888.88;5562717;32;33598;-58
2023/10/03 13:54:42;;;;;;;8.13;2.87;;;;;;;22.65;54.82;100890.47;5554231;32;34431;-59
2023/10/03 13:57:45;;;;;;;10.15;3.22;;;;;;;22.61;53.86;100886.03;5569161;32;34394;-59
2023/10/03 14:00:48;;;;;;;8.93;3.40;;;;;;;22.69;54.17;100887.84;5561870;32;34379;-58
2023/10/03 14:03:50;;;;;;;9.45;3.37;;;;;;;22.78;54.52;100882.19;5553662;32;33629;-58
2023/10/03 14:06:54;;;;;;;10.63;3.37;;;;;;;22.66;54.04;100885.81;5560100;32;34126;-58
2023/10/03 14:10:00;;;;;;;8.20;2.90;;;;;;;22.71;54.79;100886.34;5557812;32;34561;-59
2023/10/03 14:13:03;;;;;;;11.20;3.83;;;;;;;22.66;54.23;100880.34;5561249;32;34240;-59
2023/10/03 14:16:06;;;;;;;9.10;2.87;;;;;;;22.62;54.39;100884.91;5563024;32;34361;-58
2023/10/03 14:19:08;;;;;;;7.07;3.12;;;;;;;22.68;54.75;100887.03;5552470;32;34056;-59
2023/10/03 14:22:10;;;;;;;6.57;2.90;;;;;;;22.73;54.33;100875.84;5564258;32;33614;-58
2023/10/03 14:25:13;;;;;;;9.10;3.30;;;;;;;22.69;54.40;100874.19;5569014;32;33739;-59
2023/10/03 14:28:16;;;;;;;11.68;3.15;;;;;;;22.68;54.42;100873.38;5568791;32;33907;-59
2023/10/03 14:31:18;;;;;;;14.00;4.07;;;;;;;22.67;54.68;100871.78;5566608;32;34411;-59
2023/10/03 14:34:20;;;;;;;12.55;3.40;;;;;;;22.67;55.42;100869.03;5557201;32;34252;-59
2023/10/03 14:37:23;;;;;;;11.10;3.17;;;;;;;22.68;54.91;100864.37;5560592;32;33899;-59
2023/10/03 14:40:25;;;;;;;10.45;3.30;;;;;;;22.64;55.05;100858.81;5568860;32;33717;-59
2023/10/03 14:43:27;;;;;;;7.53;3.25;;;;;;;22.62;54.72;100850.19;5560962;32;34450;-58
2023/10/03 14:46:30;;;;;;;12.15;3.00;;;;;;;22.66;54.78;100848.34;5564718;32;33715;-58
2023/10/03 14:49:32;;;;;;;9.13;3.10;;;;;;;22.63;55.75;100853.72;5568482;32;33395;-59
2023/10/03 14:52:34;;;;;;;8.52;3.45;;;;;;;22.62;54.56;100855.66;5562397;32;33669;-58
2023/10/03 14:55:36;;;;;;;7.22;2.83;;;;;;;22.52;54.52;100851.50;5569412;32;33694;-58
2023/10/03 14:58:39;;;;;;;7.97;2.67;;;;;;;22.53;55.61;100844.09;5569226;32;33716;-57
2023/10/03 15:01:42;;;;;;;8.90;3.15;;;;;;;22.54;54.83;100851.13;5569204;32;33684;-57
2023/10/03 15:04:44;;;;;;;8.65;2.90;;;;;;;22.44;54.18;100846.97;5569177;32;33640;-57
2023/10/03 15:07:48;;;;;;;11.20;3.00;;;;;;;22.42;54.96;100852.00;5569273;32;33885;-56
2023/10/03 15:11:08;;;;;;;6.53;2.97;;;;;;;22.49;55.33;100845.94;5569313;32;33616;-56
2023/10/03 15:14:11;;;;;;;11.48;3.22;;;;;;;22.46;55.06;100854.81;5569129;32;34350;-56
2023/10/03 15:17:15;;;;;;;7.22;2.97;;;;;;;22.36;54.80;100850.66;5569216;32;34305;-57
2023/10/03 15:20:19;;;;;;;9.73;3.28;;;;;;;22.42;54.71;100843.81;5568926;32;34261;-56
2023/10/03 15:23:28;;;;;;;9.75;3.20;;;;;;;22.43;56.50;100833.66;5568714;32;33690;-57
2023/10/03 15:26:31;;;;;;;6.80;3.60;;;;;;;22.39;57.19;100841.75;5568742;32;33815;-57
2023/10/03 15:29:33;;;;;;;10.07;3.12;;;;;;;22.35;55.88;100837.34;5568452;32;33590;-57
2023/10/03 15:32:36;;;;;;;13.45;3.40;;;;;;;22.30;56.50;100832.12;5568903;32;33758;-57
2023/10/03 15:35:38;;;;;;;11.98;3.37;;;;;;;22.22;57.04;100834.66;5568769;32;34327;-57
2023/10/03 15:38:41;;;;;;;9.35;3.22;;;;;;;22.19;57.50;100829.91;5568740;32;34723;-57
2023/10/03 15:41:44;;;;;;;7.35;2.85;;;;;;;22.14;57.80;100832.06;5568790;32;33611;-57
2023/10/03 15:44:47;;;;;;;9.88;3.45;;;;;;;22.19;56.35;100826.38;5568688;32;33769;-57
